createdAt,value
2019-05-15T00:00:40.637Z,7.12
2019-05-15T00:03:09.667Z,3.70
2019-05-15T00:05:39.260Z,3.17
2019-05-15T00:08:09.153Z,3.20
2019-05-15T00:10:39.220Z,3.02
2019-05-15T00:13:09.227Z,2.92
2019-05-15T00:15:40.081Z,3.42
2019-05-15T00:18:09.374Z,3.60
2019-05-15T00:20:40.085Z,2.87
2019-05-15T00:23:08.735Z,3.12
2019-05-15T00:25:39.486Z,2.47
2019-05-15T00:28:09.357Z,2.98
2019-05-15T00:30:39.005Z,2.90
2019-05-15T00:33:09.108Z,2.55
2019-05-15T00:35:39.277Z,2.40
2019-05-15T00:38:09.513Z,2.33
2019-05-15T00:40:39.382Z,2.22
2019-05-15T00:43:09.054Z,3.15
2019-05-15T00:45:38.750Z,3.83
2019-05-15T00:48:08.856Z,3.30
2019-05-15T00:50:39.318Z,3.00
2019-05-15T00:53:09.023Z,2.83
2019-05-15T00:55:39.351Z,2.70
2019-05-15T00:58:08.699Z,2.52
2019-05-15T01:00:40.767Z,2.25
2019-05-15T01:03:09.472Z,2.40
2019-05-15T01:05:38.753Z,2.25
2019-05-15T01:08:08.329Z,1.85
2019-05-15T01:10:38.613Z,2.20
2019-05-15T01:13:08.411Z,2.22
2019-05-15T01:15:38.704Z,2.67
2019-05-15T01:18:09.280Z,2.00
2019-05-15T01:20:39.102Z,2.37
2019-05-15T01:23:08.893Z,1.77
2019-05-15T01:25:39.054Z,1.77
2019-05-15T01:28:09.381Z,2.05
2019-05-15T01:30:39.307Z,1.75
2019-05-15T01:33:08.543Z,1.62
2019-05-15T01:35:38.390Z,1.87
2019-05-15T01:38:08.316Z,1.85
2019-05-15T01:40:38.603Z,1.75
2019-05-15T01:43:09.081Z,1.85
2019-05-15T01:45:39.416Z,1.90
2019-05-15T01:48:08.449Z,1.65
2019-05-15T01:50:38.863Z,1.67
2019-05-15T01:53:08.211Z,1.40
2019-05-15T01:55:39.395Z,1.77
2019-05-15T01:58:09.118Z,1.60
2019-05-15T02:00:39.206Z,1.50
2019-05-15T02:03:09.677Z,2.00
2019-05-15T02:05:39.418Z,1.87
2019-05-15T02:08:08.600Z,1.50
2019-05-15T02:10:39.200Z,1.60
2019-05-15T02:13:08.515Z,2.00
2019-05-15T02:15:39.609Z,1.52
2019-05-15T02:18:08.554Z,1.52
2019-05-15T02:20:38.887Z,1.55
2019-05-15T02:23:11.556Z,2.42
2019-05-15T02:25:39.029Z,2.17
2019-05-15T02:28:09.367Z,1.55
2019-05-15T02:30:40.462Z,1.50
2019-05-15T02:33:10.502Z,1.92
2019-05-15T02:35:39.778Z,1.40
2019-05-15T02:38:10.189Z,1.62
2019-05-15T02:40:40.453Z,1.80
2019-05-15T02:43:10.420Z,1.67
2019-05-15T02:45:41.950Z,2.00
2019-05-15T02:48:09.936Z,1.77
2019-05-15T02:50:39.358Z,1.30
2019-05-15T02:53:09.846Z,1.42
2019-05-15T02:55:40.258Z,1.40
2019-05-15T02:58:10.357Z,1.20
2019-05-15T03:00:47.733Z,1.57
2019-05-15T03:03:10.063Z,1.57
2019-05-15T03:05:40.883Z,2.12
2019-05-15T03:08:09.798Z,2.00
2019-05-15T03:10:40.568Z,2.17
2019-05-15T03:13:09.988Z,2.45
2019-05-15T03:15:40.234Z,1.90
2019-05-15T03:18:10.119Z,2.33
2019-05-15T03:20:39.544Z,1.37
2019-05-15T03:23:09.527Z,1.37
2019-05-15T03:25:40.247Z,1.35
2019-05-15T03:28:10.646Z,1.37
2019-05-15T03:31:07.294Z,1.92
2019-05-15T03:33:18.809Z,1.37
2019-05-15T03:35:42.860Z,1.30
2019-05-15T03:38:11.188Z,1.50
2019-05-15T03:40:40.207Z,1.72
2019-05-15T03:43:09.337Z,1.00
2019-05-15T03:45:40.367Z,1.37
2019-05-15T03:48:10.597Z,1.40
2019-05-15T03:50:40.621Z,1.02
2019-05-15T03:53:10.591Z,1.10
2019-05-15T03:55:40.773Z,1.15
2019-05-15T03:58:10.425Z,1.07
2019-05-15T04:00:41.673Z,0.90
2019-05-15T04:03:11.216Z,0.90
2019-05-15T04:05:41.310Z,1.20
2019-05-15T04:08:11.287Z,1.47
2019-05-15T04:10:40.389Z,1.50
2019-05-15T04:13:09.873Z,1.40
2019-05-15T04:15:39.849Z,1.37
2019-05-15T04:18:09.424Z,1.72
2019-05-15T04:20:40.672Z,1.37
2019-05-15T04:23:10.331Z,1.45
2019-05-15T04:25:39.580Z,1.30
2019-05-15T04:28:11.090Z,1.27
2019-05-15T04:30:39.870Z,1.20
2019-05-15T04:33:09.456Z,1.00
2019-05-15T04:35:40.119Z,1.15
2019-05-15T04:38:09.571Z,1.32
2019-05-15T04:40:39.830Z,1.52
2019-05-15T04:43:10.516Z,1.22
2019-05-15T04:45:39.748Z,1.10
2019-05-15T04:48:09.976Z,1.67
2019-05-15T04:50:40.093Z,1.10
2019-05-15T04:53:10.510Z,1.80
2019-05-15T04:55:40.653Z,1.57
2019-05-15T04:58:10.216Z,1.20
2019-05-15T05:00:53.380Z,1.00
2019-05-15T05:03:22.520Z,1.45
2019-05-15T05:05:51.340Z,1.25
2019-05-15T05:08:21.027Z,1.95
2019-05-15T05:10:50.184Z,0.85
2019-05-15T05:13:19.834Z,0.75
2019-05-15T05:15:49.989Z,1.10
2019-05-15T05:18:19.766Z,1.52
2019-05-15T05:20:48.849Z,0.80
2019-05-15T05:23:19.200Z,1.45
2019-05-15T05:25:49.325Z,2.27
2019-05-15T05:28:18.569Z,1.27
2019-05-15T05:30:48.439Z,1.02
2019-05-15T05:33:18.700Z,1.00
2019-05-15T05:35:49.020Z,0.95
2019-05-15T05:38:19.045Z,1.00
2019-05-15T05:40:49.464Z,1.00
2019-05-15T05:43:19.297Z,1.25
2019-05-15T05:45:49.274Z,0.95
2019-05-15T05:48:19.219Z,0.90
2019-05-15T05:50:49.533Z,0.90
2019-05-15T05:53:20.822Z,1.07
2019-05-15T05:55:52.616Z,1.10
2019-05-15T05:58:19.846Z,1.40
2019-05-15T06:00:49.484Z,1.20
2019-05-15T06:03:19.762Z,1.00
2019-05-15T06:05:49.467Z,1.00
2019-05-15T06:08:20.236Z,0.90
2019-05-15T06:10:49.774Z,1.20
2019-05-15T06:13:19.194Z,1.15
2019-05-15T06:15:48.726Z,1.00
2019-05-15T06:18:19.503Z,0.90
2019-05-15T06:20:49.353Z,1.05
2019-05-15T06:23:23.664Z,1.37
2019-05-15T06:25:50.911Z,0.90
2019-05-15T06:28:20.446Z,1.22
2019-05-15T06:30:49.331Z,1.10
2019-05-15T06:33:18.992Z,1.22
2019-05-15T06:35:48.872Z,1.35
2019-05-15T06:38:19.378Z,1.60
2019-05-15T06:40:50.010Z,1.10
2019-05-15T06:43:20.568Z,1.20
2019-05-15T06:45:49.539Z,1.00
2019-05-15T06:48:18.803Z,1.05
2019-05-15T06:50:48.958Z,0.80
2019-05-15T06:53:19.205Z,1.02
2019-05-15T06:55:48.667Z,1.20
2019-05-15T06:58:19.286Z,1.20
2019-05-15T07:00:49.239Z,1.55
2019-05-15T07:03:25.239Z,1.15
2019-05-15T07:05:50.583Z,1.25
2019-05-15T07:08:19.442Z,1.20
2019-05-15T07:10:48.725Z,1.72
2019-05-15T07:13:18.398Z,1.25
2019-05-15T07:15:49.760Z,1.50
2019-05-15T07:18:19.759Z,1.20
2019-05-15T07:20:49.513Z,1.42
2019-05-15T07:23:19.080Z,1.17
2019-05-15T07:25:49.744Z,1.50
2019-05-15T07:28:18.514Z,1.20
2019-05-15T07:30:49.573Z,1.20
2019-05-15T07:33:28.037Z,1.50
2019-05-15T07:35:49.291Z,1.40
2019-05-15T07:38:19.018Z,3.05
2019-05-15T07:40:55.667Z,1.20
2019-05-15T07:43:18.438Z,1.10
2019-05-15T07:45:53.999Z,1.15
2019-05-15T07:48:18.850Z,1.30
2019-05-15T07:50:49.712Z,1.22
2019-05-15T07:53:19.705Z,1.20
2019-05-15T07:55:49.992Z,0.85
2019-05-15T07:58:21.235Z,1.12
2019-05-15T08:00:49.834Z,1.10
2019-05-15T08:03:18.758Z,1.22
2019-05-15T08:05:58.901Z,1.15
2019-05-15T08:08:18.616Z,1.20
2019-05-15T08:10:48.869Z,1.00
2019-05-15T08:13:18.699Z,1.00
2019-05-15T08:15:48.731Z,1.15
2019-05-15T08:18:18.862Z,0.90
2019-05-15T08:20:48.955Z,1.00
2019-05-15T08:23:19.240Z,1.00
2019-05-15T08:25:48.794Z,1.10
2019-05-15T08:28:19.151Z,1.00
2019-05-15T08:30:49.639Z,0.82
2019-05-15T08:33:18.969Z,0.72
2019-05-15T08:35:51.315Z,1.10
2019-05-15T08:38:18.439Z,1.00
2019-05-15T08:40:48.903Z,0.75
2019-05-15T08:43:18.734Z,1.20
2019-05-15T08:45:49.452Z,0.90
2019-05-15T08:48:18.633Z,1.90
2019-05-15T08:50:48.819Z,0.90
2019-05-15T08:53:19.461Z,1.90
2019-05-15T08:55:49.089Z,1.63
2019-05-15T08:58:20.425Z,0.80
2019-05-15T09:00:52.182Z,1.15
2019-05-15T09:03:18.698Z,0.82
2019-05-15T09:05:48.492Z,0.90
2019-05-15T09:08:19.392Z,1.15
2019-05-15T09:10:50.312Z,0.90
2019-05-15T09:13:19.077Z,1.00
2019-05-15T09:15:48.908Z,1.42
2019-05-15T09:18:20.082Z,2.70
2019-05-15T09:20:49.278Z,2.20
2019-05-15T09:23:19.459Z,5.35
2019-05-15T09:25:49.492Z,2.33
2019-05-15T09:28:19.385Z,1.87
2019-05-15T09:30:48.779Z,1.80
2019-05-15T09:33:20.019Z,2.45
2019-05-15T09:35:49.067Z,2.58
2019-05-15T09:38:18.717Z,2.25
2019-05-15T09:40:50.509Z,2.83
2019-05-15T09:43:18.333Z,3.50
2019-05-15T09:45:49.228Z,3.20
2019-05-15T09:48:19.608Z,2.60
2019-05-15T09:50:49.456Z,2.87
2019-05-15T09:53:19.070Z,3.22
2019-05-15T09:55:49.485Z,3.30
2019-05-15T09:58:20.589Z,3.42
2019-05-15T10:00:51.908Z,2.80
2019-05-15T10:03:20.315Z,1.80
2019-05-15T10:05:49.502Z,2.70
2019-05-15T10:08:21.153Z,2.90
2019-05-15T10:10:49.009Z,3.12
2019-05-15T10:13:18.714Z,3.65
2019-05-15T10:15:50.867Z,3.83
2019-05-15T10:18:19.102Z,2.87
2019-05-15T10:20:48.230Z,2.62
2019-05-15T10:23:19.658Z,4.17
2019-05-15T10:25:49.390Z,2.47
2019-05-15T10:28:19.434Z,4.07
2019-05-15T10:30:49.706Z,3.27
2019-05-15T10:33:19.699Z,3.67
2019-05-15T10:35:50.226Z,3.17
2019-05-15T10:38:19.578Z,3.47
2019-05-15T10:40:59.834Z,3.15
2019-05-15T10:43:20.656Z,3.10
2019-05-15T10:45:50.294Z,3.62
2019-05-15T10:48:19.320Z,2.87
2019-05-15T10:50:48.231Z,2.98
2019-05-15T10:53:18.713Z,3.12
2019-05-15T10:55:49.486Z,2.70
2019-05-15T10:58:21.786Z,4.08
2019-05-15T11:00:49.338Z,3.02
2019-05-15T11:03:19.983Z,2.50
2019-05-15T11:05:49.237Z,2.30
2019-05-15T11:08:18.939Z,2.92
2019-05-15T11:10:49.460Z,4.17
2019-05-15T11:13:18.964Z,2.67
2019-05-15T11:15:49.357Z,2.70
2019-05-15T11:18:18.250Z,3.15
2019-05-15T11:20:48.644Z,2.70
2019-05-15T11:23:20.078Z,4.12
2019-05-15T11:25:48.799Z,2.83
2019-05-15T11:28:18.091Z,1.80
2019-05-15T11:30:49.063Z,1.87
2019-05-15T11:33:18.776Z,2.30
2019-05-15T11:35:58.137Z,3.67
2019-05-15T11:38:19.459Z,3.65
2019-05-15T11:40:48.530Z,3.47
2019-05-15T11:43:19.743Z,2.92
2019-05-15T11:45:48.446Z,1.60
2019-05-15T11:48:20.185Z,2.50
2019-05-15T11:50:47.681Z,1.72
2019-05-15T11:53:18.939Z,1.62
2019-05-15T11:55:48.114Z,1.70
2019-05-15T11:58:18.948Z,2.67
2019-05-15T12:00:49.060Z,2.60
2019-05-15T12:03:18.950Z,2.22
2019-05-15T12:05:48.104Z,2.12
2019-05-15T12:08:18.580Z,1.95
2019-05-15T12:10:47.236Z,2.10
2019-05-15T12:13:18.671Z,2.45
2019-05-15T12:15:48.420Z,2.77
2019-05-15T12:18:16.982Z,3.00
2019-05-15T12:20:48.330Z,2.65
2019-05-15T12:23:16.145Z,1.60
2019-05-15T12:25:44.875Z,2.12
2019-05-15T12:28:13.618Z,1.75
2019-05-15T12:30:42.338Z,2.00
2019-05-15T12:33:11.129Z,2.08
2019-05-15T12:35:40.336Z,2.05
2019-05-15T12:38:10.316Z,2.12
2019-05-15T13:00:43.493Z,1.30
2019-05-15T13:03:12.281Z,1.40
2019-05-15T13:05:41.014Z,2.33
2019-05-15T13:08:09.798Z,2.70
2019-05-15T13:10:38.879Z,1.77
2019-05-15T13:13:09.509Z,1.47
2019-05-15T13:15:41.134Z,1.50
2019-05-15T13:18:13.880Z,1.30
2019-05-15T13:20:39.182Z,1.20
2019-05-15T13:23:09.013Z,1.20
2019-05-15T13:25:39.594Z,1.07
2019-05-15T13:28:08.866Z,1.35
2019-05-15T13:30:41.193Z,1.20
2019-05-15T13:33:10.135Z,1.10
2019-05-15T13:35:39.008Z,1.55
2019-05-15T13:38:10.434Z,3.20
2019-05-15T13:40:42.304Z,2.00
2019-05-15T13:43:10.112Z,2.55
2019-05-15T13:45:38.981Z,3.05
2019-05-15T13:48:09.040Z,4.28
2019-05-15T13:50:40.539Z,5.12
2019-05-15T13:53:10.935Z,6.55
2019-05-15T13:55:42.491Z,5.72
2019-05-15T13:58:09.247Z,5.72
2019-05-15T14:00:39.565Z,7.35
2019-05-15T14:03:09.231Z,3.42
2019-05-15T14:05:38.817Z,4.10
2019-05-15T14:08:07.757Z,4.67
2019-05-15T14:10:38.622Z,5.75
2019-05-15T14:13:07.136Z,2.90
2019-05-15T14:15:38.016Z,3.40
2019-05-15T14:18:08.352Z,4.28
2019-05-15T14:20:38.720Z,6.55
2019-05-15T14:23:08.648Z,7.87
2019-05-15T14:25:38.789Z,5.17
2019-05-15T14:28:08.929Z,2.30
2019-05-15T14:30:37.953Z,3.22
2019-05-15T14:33:08.500Z,1.95
2019-05-15T14:35:37.929Z,2.50
2019-05-15T14:38:10.224Z,4.05
2019-05-15T14:40:37.313Z,2.75
2019-05-15T14:43:08.586Z,3.67
2019-05-15T14:45:38.619Z,2.85
2019-05-15T14:48:08.862Z,3.37
2019-05-15T14:50:38.403Z,3.58
2019-05-15T14:53:09.662Z,3.70
2019-05-15T14:55:44.030Z,2.27
2019-05-15T14:58:08.584Z,2.37
2019-05-15T15:00:41.091Z,2.90
2019-05-15T15:03:09.547Z,2.75
2019-05-15T15:05:38.784Z,4.40
2019-05-15T15:08:18.448Z,4.67
2019-05-15T15:10:38.634Z,3.33
2019-05-15T15:13:09.434Z,2.90
2019-05-15T15:15:38.181Z,2.72
2019-05-15T15:18:08.719Z,3.27
2019-05-15T15:20:39.242Z,3.90
2019-05-15T15:23:08.429Z,4.70
2019-05-15T15:25:39.545Z,5.62
2019-05-15T15:28:08.490Z,6.47
2019-05-15T15:30:38.400Z,7.60
2019-05-15T15:33:08.675Z,8.63
2019-05-15T15:35:38.359Z,3.40
2019-05-15T15:38:12.765Z,3.83
2019-05-15T15:40:38.814Z,5.00
2019-05-15T15:43:08.825Z,6.75
2019-05-15T15:45:39.153Z,8.03
2019-05-15T15:48:08.761Z,9.93
2019-05-15T15:50:38.406Z,12.35
2019-05-15T15:53:08.787Z,11.38
2019-05-15T15:55:38.528Z,11.15
2019-05-15T15:58:08.763Z,9.78
2019-05-15T16:00:38.528Z,11.70
2019-05-15T16:03:08.420Z,10.15
2019-05-15T16:05:38.392Z,11.60
2019-05-15T16:08:08.586Z,12.20
2019-05-15T16:10:38.104Z,13.50
2019-05-15T16:13:09.195Z,15.08
2019-05-15T16:15:38.789Z,15.58
2019-05-15T16:18:08.903Z,15.38
2019-05-15T16:20:39.661Z,15.32
2019-05-15T16:23:08.697Z,14.00
2019-05-15T16:25:38.489Z,10.35
2019-05-15T16:28:08.825Z,10.23
2019-05-15T16:30:50.426Z,11.73
2019-05-15T16:35:38.774Z,19.20
2019-05-15T16:38:09.415Z,21.50
2019-05-15T16:40:40.283Z,20.80
2019-05-15T16:43:09.015Z,19.45
2019-05-15T16:45:38.841Z,16.00
2019-05-15T16:48:09.457Z,17.27
2019-05-15T16:50:38.333Z,12.80
2019-05-15T16:53:09.194Z,15.13
2019-05-15T16:55:37.918Z,14.25
2019-05-15T16:58:09.123Z,18.40
2019-05-15T17:00:38.413Z,9.80
2019-05-15T17:03:14.411Z,12.37
2019-05-15T17:05:38.787Z,9.18
2019-05-15T17:08:09.077Z,9.23
2019-05-15T17:10:38.730Z,7.55
2019-05-15T17:13:08.728Z,4.75
2019-05-15T17:15:38.428Z,4.15
2019-05-15T17:18:08.940Z,5.33
2019-05-15T17:20:37.934Z,4.47
2019-05-15T17:23:08.676Z,5.00
2019-05-15T17:25:38.395Z,6.90
2019-05-15T17:28:09.191Z,9.30
2019-05-15T17:30:38.268Z,12.55
2019-05-15T17:33:07.290Z,16.30
2019-05-15T17:35:38.013Z,18.75
2019-05-15T17:38:06.473Z,21.97
2019-05-15T17:40:35.200Z,22.87
2019-05-15T17:43:03.930Z,24.85
2019-05-15T17:45:32.950Z,27.27
2019-05-15T17:48:01.692Z,25.23
2019-05-15T17:50:44.717Z,26.37
2019-05-15T17:53:01.009Z,25.35
2019-05-15T17:55:29.740Z,26.70
2019-05-15T17:58:01.101Z,29.50
2019-05-15T18:00:28.940Z,27.10
2019-05-15T18:02:57.651Z,25.43
2019-05-15T18:05:28.245Z,24.60
2019-05-15T18:07:58.400Z,26.73
2019-05-15T18:10:27.896Z,23.90
2019-05-15T18:12:58.402Z,24.32
2019-05-15T18:15:27.351Z,23.32
2019-05-15T18:17:58.981Z,23.42
2019-05-15T18:20:29.611Z,21.25
2019-05-15T18:22:59.281Z,21.05
2019-05-15T18:25:28.197Z,22.40
2019-05-15T18:27:59.310Z,18.75
2019-05-15T18:30:28.155Z,16.07
2019-05-15T18:32:58.753Z,17.25
2019-05-15T18:35:29.473Z,17.40
2019-05-15T18:37:59.074Z,18.02
2019-05-15T18:40:28.147Z,16.85
2019-05-15T18:42:59.263Z,21.77
2019-05-15T18:45:28.986Z,18.02
2019-05-15T18:47:58.831Z,15.10
2019-05-15T18:50:28.444Z,14.38
2019-05-15T18:52:58.456Z,14.58
2019-05-15T18:55:27.499Z,13.20
2019-05-15T18:57:59.460Z,12.23
2019-05-15T19:00:29.589Z,11.53
2019-05-15T19:02:59.560Z,10.50
2019-05-15T19:05:28.532Z,10.40
2019-05-15T19:07:57.885Z,10.63
2019-05-15T19:10:28.256Z,10.15
2019-05-15T19:12:58.101Z,7.28
2019-05-15T19:15:28.766Z,7.80
2019-05-15T19:17:58.551Z,7.70
2019-05-15T19:20:28.070Z,7.58
2019-05-15T19:22:58.915Z,7.70
2019-05-15T19:25:28.574Z,6.78
2019-05-15T19:27:57.919Z,7.20
2019-05-15T19:30:28.717Z,7.10
2019-05-15T19:32:58.574Z,6.80
2019-05-15T19:35:28.766Z,5.97
2019-05-15T19:37:58.526Z,5.87
2019-05-15T19:40:28.415Z,6.05
2019-05-15T19:42:58.961Z,4.70
2019-05-15T19:45:28.371Z,5.20
2019-05-15T19:47:58.703Z,5.08
2019-05-15T19:50:28.806Z,5.20
2019-05-15T19:52:59.185Z,4.35
2019-05-15T19:55:28.058Z,5.25
2019-05-15T19:57:58.886Z,4.30
2019-05-15T20:00:28.582Z,4.67
2019-05-15T20:02:58.121Z,4.95
2019-05-15T20:05:28.919Z,5.10
2019-05-15T20:07:58.939Z,5.97
2019-05-15T20:10:29.271Z,5.00
2019-05-15T20:12:59.907Z,4.37
2019-05-15T20:15:30.105Z,3.27
2019-05-15T20:17:59.270Z,3.25
2019-05-15T20:20:28.643Z,3.65
2019-05-15T20:22:59.927Z,3.47
2019-05-15T20:25:28.106Z,4.10
2019-05-15T20:27:57.112Z,3.52
2019-05-15T20:30:28.406Z,3.50
2019-05-15T20:32:58.357Z,3.65
2019-05-15T20:35:28.245Z,2.90
2019-05-15T20:37:58.106Z,3.25
2019-05-15T20:40:27.109Z,3.20
2019-05-15T20:42:55.838Z,3.52
2019-05-15T20:45:24.658Z,2.12
2019-05-15T20:47:53.400Z,2.42
2019-05-15T20:50:22.181Z,2.50
2019-05-15T20:52:50.907Z,2.47
2019-05-15T20:55:19.628Z,2.60
2019-05-15T20:57:50.424Z,2.60
2019-05-15T21:00:19.559Z,1.77
2019-05-15T21:02:48.767Z,2.30
2019-05-15T21:05:18.550Z,2.47
2019-05-15T21:07:48.599Z,2.85
2019-05-15T21:10:21.177Z,2.40
2019-05-15T21:12:48.842Z,1.60
2019-05-15T21:15:21.382Z,2.00
2019-05-15T21:17:57.579Z,1.57
2019-05-15T21:20:20.632Z,1.77
2019-05-15T21:22:49.624Z,1.77
2019-05-15T21:25:19.793Z,1.60
2019-05-15T21:27:49.090Z,1.80
2019-05-15T21:30:19.069Z,1.72
2019-05-15T21:32:49.228Z,1.60
2019-05-15T21:35:18.507Z,1.72
2019-05-15T21:37:48.995Z,1.32
2019-05-15T21:40:18.034Z,1.60
2019-05-15T21:42:49.274Z,1.67
2019-05-15T21:45:18.562Z,1.30
2019-05-15T21:47:47.340Z,1.70
2019-05-15T21:50:18.977Z,1.70
2019-05-15T21:52:49.111Z,1.90
2019-05-15T21:55:18.493Z,2.00
2019-05-15T21:57:47.720Z,0.93
2019-05-15T22:00:38.047Z,1.80
2019-05-15T22:03:06.717Z,1.50
2019-05-15T22:05:35.434Z,1.72
2019-05-15T22:08:04.346Z,1.62
2019-05-15T22:10:33.152Z,1.45
2019-05-15T22:13:03.072Z,1.60
2019-05-15T22:15:31.853Z,1.10
2019-05-15T22:18:00.833Z,1.20
2019-05-15T22:20:30.502Z,1.20
2019-05-15T22:22:59.779Z,1.20
2019-05-15T22:25:28.585Z,1.30
2019-05-15T22:27:58.029Z,1.50
2019-05-15T22:30:29.895Z,1.20
2019-05-15T22:32:58.672Z,1.57
2019-05-15T22:35:29.357Z,1.40
2019-05-15T22:37:58.556Z,1.07
2019-05-15T22:40:28.926Z,1.60
2019-05-15T22:42:59.178Z,1.35
2019-05-15T22:45:28.768Z,1.40
2019-05-15T22:47:58.596Z,1.10
2019-05-15T22:50:28.254Z,1.55
2019-05-15T22:52:58.620Z,1.40
2019-05-15T22:55:28.929Z,1.80
2019-05-15T22:57:58.662Z,1.37
2019-05-15T23:00:29.124Z,1.40
2019-05-15T23:02:58.405Z,1.05
2019-05-15T23:05:31.002Z,1.40
2019-05-15T23:07:58.899Z,1.07
2019-05-15T23:10:29.193Z,1.40
2019-05-15T23:12:58.578Z,1.50
2019-05-15T23:15:28.110Z,1.10
2019-05-15T23:17:58.270Z,1.30
2019-05-15T23:20:28.615Z,1.20
2019-05-15T23:22:58.479Z,1.30
2019-05-15T23:25:29.041Z,1.47
2019-05-15T23:27:58.293Z,1.50
2019-05-15T23:30:28.894Z,1.42
2019-05-15T23:32:58.365Z,1.50
2019-05-15T23:35:35.588Z,1.40
2019-05-15T23:37:58.150Z,1.40
2019-05-15T23:40:28.775Z,1.20
2019-05-15T23:42:57.541Z,2.02
2019-05-15T23:45:28.745Z,1.77
2019-05-15T23:47:58.070Z,2.35
2019-05-15T23:50:28.920Z,1.72
2019-05-15T23:52:58.337Z,1.75
2019-05-15T23:55:28.550Z,2.15
2019-05-15T23:57:58.415Z,1.25
